»·PEaware :: N9229P KLAX-KSAN

N9229P :: KLAX-KSAN

FLIGHT INFORMATION

Flight Status: Arrived
Operator: Privately registered:
United States
More flights under this callsign
Pilot: James W. (24810)
Aircraft: PIPER PA-24 COMMANCHE
(PA24)
More flights by this aircraft type
Origin: KLAX Los Angeles Intl
United States
Destination: KSAN San Diego Intl-Lindbergh
United States
More flights between these airports :: More routes between these airports
Route:
File this flight plan on PilotEdge
Remarks:
Altitude:
(Current/Filed)
5,500ft
Speed:
(Current/Filed)
170kts
Departed: 30-Nov-20 04:30 PM
Arrived: 30-Nov-20 05:09 PM
Distance/Time
Traveled:
95nm/0:39
Distance/Time
To Go:
Arrived

Flight Plot

Page will automatically refresh every two minutes.


Map Options




Map Legend


Flown Route
Filed Route
Departure Airport
Arrival Airport
Navaid (VOR, NDB)
Fix

Horizontal Profiles

Position Reports

Time Latitude Longitude Heading Altitude Ground
Speed
30-Nov-20 16:15 33.932755 -118.399128 72 117ft 0kts
30-Nov-20 16:16 33.932755 -118.399128 72 117ft 0kts
30-Nov-20 16:17 33.932755 -118.399128 72 117ft 0kts
30-Nov-20 16:18 33.932755 -118.399128 72 117ft 0kts
30-Nov-20 16:19 33.932755 -118.399128 72 117ft 0kts
30-Nov-20 16:20 33.932755 -118.399128 72 117ft 0kts
30-Nov-20 16:21 33.932755 -118.399128 72 117ft 0kts
30-Nov-20 16:22 33.932755 -118.399128 72 117ft 0kts
30-Nov-20 16:23 33.933351 -118.398883 31 115ft 4kts
30-Nov-20 16:24 33.934571 -118.397897 73 111ft 5kts
30-Nov-20 16:24 33.934917 -118.394609 84 105ft 13kts
30-Nov-20 16:26 33.935430 -118.389588 82 102ft 12kts
30-Nov-20 16:26 33.935812 -118.385784 83 100ft 14kts
30-Nov-20 16:27 33.936379 -118.382775 15 97ft 0kts
30-Nov-20 16:29 33.936520 -118.382756 357 97ft 6kts
30-Nov-20 16:29 33.936270 -118.392678 258 175ft 103kts
30-Nov-20 16:30 33.930007 -118.435609 248 1199ft 146kts
30-Nov-20 16:31 33.890502 -118.449923 185 2211ft 157kts
30-Nov-20 16:32 33.848546 -118.425475 146 2605ft 180kts
30-Nov-20 16:33 33.809386 -118.389238 124 3199ft 175kts
30-Nov-20 16:34 33.779493 -118.342320 128 3579ft 185kts
30-Nov-20 16:35 33.748325 -118.293077 128 3998ft 177kts
30-Nov-20 16:36 33.719063 -118.246682 128 4691ft 172kts
30-Nov-20 16:37 33.690845 -118.202002 129 5375ft 170kts
30-Nov-20 16:38 33.660542 -118.154116 129 5488ft 186kts
30-Nov-20 16:39 33.628996 -118.104289 129 5484ft 187kts
30-Nov-20 16:40 33.597554 -118.054700 129 5482ft 186kts
30-Nov-20 16:41 33.566197 -118.005311 129 5485ft 186kts
30-Nov-20 16:42 33.534835 -117.955737 129 5487ft 185kts
30-Nov-20 16:43 33.503686 -117.906762 129 5489ft 184kts
30-Nov-20 16:44 33.472532 -117.857892 129 5490ft 185kts
30-Nov-20 16:45 33.441217 -117.808837 129 5490ft 185kts
30-Nov-20 16:46 33.409796 -117.759682 128 5488ft 186kts
30-Nov-20 16:47 33.378119 -117.710194 127 5486ft 187kts
30-Nov-20 16:48 33.346482 -117.660828 127 5484ft 187kts
30-Nov-20 16:49 33.314831 -117.611512 126 5482ft 186kts
30-Nov-20 16:50 33.283322 -117.562482 126 5482ft 185kts
30-Nov-20 16:51 33.251862 -117.513680 126 5483ft 186kts
30-Nov-20 16:52 33.220201 -117.464466 126 5476ft 186kts
30-Nov-20 16:53 33.188464 -117.415433 127 5481ft 186kts
30-Nov-20 16:54 33.148789 -117.379082 161 5486ft 186kts
30-Nov-20 16:55 33.099327 -117.358461 160 4979ft 179kts
30-Nov-20 16:56 33.054776 -117.340064 161 4273ft 159kts
30-Nov-20 16:57 33.015042 -117.323634 161 3709ft 146kts
30-Nov-20 16:58 32.977280 -117.307995 161 3492ft 144kts
30-Nov-20 16:59 32.938692 -117.292074 161 3490ft 148kts
30-Nov-20 17:00 32.900619 -117.276397 162 3480ft 131kts
30-Nov-20 17:01 32.870217 -117.263794 162 3485ft 107kts
30-Nov-20 17:02 32.840011 -117.251392 160 3059ft 127kts
30-Nov-20 17:03 32.810169 -117.227440 148 2452ft 128kts
30-Nov-20 17:04 32.780285 -117.206256 152 1841ft 123kts
30-Nov-20 17:05 32.750945 -117.186301 152 1277ft 119kts
30-Nov-20 17:06 32.739973 -117.155109 142 900ft 98kts
30-Nov-20 17:07 32.728957 -117.170737 288 265ft 79kts
30-Nov-20 17:08 32.733254 -117.187956 302 18ft 15kts
30-Nov-20 17:09 32.734165 -117.187848 70 18ft 10kts
30-Nov-20 17:10 32.734599 -117.185375 188 18ft 0kts

Navigation Log

Ident Type
Flight plan parsing failed, navigation log unavailable